sensor_id;sensor_type;location;lat;lon;timestamp;P1;durP1;ratioP1;P2;durP2;ratioP2
48859;SDS011;34679;51.436;-2.518;2023-11-21T00:00:20;2.45;;;0.60;;
48859;SDS011;34679;51.436;-2.518;2023-11-21T00:02:46;1.65;;;0.75;;
48859;SDS011;34679;51.436;-2.518;2023-11-21T00:05:12;4.38;;;0.80;;
48859;SDS011;34679;51.436;-2.518;2023-11-21T00:07:39;3.28;;;1.20;;
48859;SDS011;34679;51.436;-2.518;2023-11-21T00:10:06;5.38;;;0.80;;
48859;SDS011;34679;51.436;-2.518;2023-11-21T00:12:33;6.30;;;1.42;;
48859;SDS011;34679;51.436;-2.518;2023-11-21T00:15:04;1.65;;;0.70;;
48859;SDS011;34679;51.436;-2.518;2023-11-21T00:17:36;4.32;;;0.70;;
48859;SDS011;34679;51.436;-2.518;2023-11-21T00:20:05;3.25;;;0.80;;
48859;SDS011;34679;51.436;-2.518;2023-11-21T00:22:33;5.45;;;1.08;;
48859;SDS011;34679;51.436;-2.518;2023-11-21T00:24:59;4.47;;;1.00;;
48859;SDS011;34679;51.436;-2.518;2023-11-21T00:27:25;7.43;;;1.02;;
48859;SDS011;34679;51.436;-2.518;2023-11-21T00:29:50;4.40;;;1.08;;
48859;SDS011;34679;51.436;-2.518;2023-11-21T00:32:16;5.43;;;0.80;;
48859;SDS011;34679;51.436;-2.518;2023-11-21T00:34:42;4.72;;;0.98;;
48859;SDS011;34679;51.436;-2.518;2023-11-21T00:37:07;3.75;;;0.77;;
48859;SDS011;34679;51.436;-2.518;2023-11-21T00:39:33;6.70;;;0.60;;
48859;SDS011;34679;51.436;-2.518;2023-11-21T00:42:00;7.22;;;0.85;;
48859;SDS011;34679;51.436;-2.518;2023-11-21T00:44:26;4.40;;;0.73;;
48859;SDS011;34679;51.436;-2.518;2023-11-21T00:46:51;5.78;;;0.73;;
48859;SDS011;34679;51.436;-2.518;2023-11-21T00:49:17;4.82;;;1.25;;
48859;SDS011;34679;51.436;-2.518;2023-11-21T00:51:43;4.38;;;0.65;;
48859;SDS011;34679;51.436;-2.518;2023-11-21T00:54:08;5.40;;;0.70;;
48859;SDS011;34679;51.436;-2.518;2023-11-21T00:56:34;2.20;;;0.63;;
48859;SDS011;34679;51.436;-2.518;2023-11-21T00:58:59;5.25;;;0.70;;
48859;SDS011;34679;51.436;-2.518;2023-11-21T01:01:25;5.85;;;0.73;;
48859;SDS011;34679;51.436;-2.518;2023-11-21T01:03:51;5.28;;;0.82;;
48859;SDS011;34679;51.436;-2.518;2023-11-21T01:06:17;1.25;;;0.60;;
48859;SDS011;34679;51.436;-2.518;2023-11-21T01:08:43;10.27;;;1.08;;
48859;SDS011;34679;51.436;-2.518;2023-11-21T01:11:09;3.67;;;0.90;;
48859;SDS011;34679;51.436;-2.518;2023-11-21T01:13:40;3.72;;;0.65;;
48859;SDS011;34679;51.436;-2.518;2023-11-21T01:16:07;3.83;;;0.90;;
48859;SDS011;34679;51.436;-2.518;2023-11-21T01:18:33;3.30;;;1.10;;
48859;SDS011;34679;51.436;-2.518;2023-11-21T01:21:00;6.55;;;0.85;;
48859;SDS011;34679;51.436;-2.518;2023-11-21T01:23:26;4.32;;;0.60;;
48859;SDS011;34679;51.436;-2.518;2023-11-21T01:25:52;3.50;;;0.57;;
48859;SDS011;34679;51.436;-2.518;2023-11-21T01:28:18;7.63;;;1.00;;
48859;SDS011;34679;51.436;-2.518;2023-11-21T01:30:44;4.30;;;0.77;;
48859;SDS011;34679;51.436;-2.518;2023-11-21T01:33:10;3.78;;;0.77;;
48859;SDS011;34679;51.436;-2.518;2023-11-21T01:35:36;2.75;;;1.10;;
48859;SDS011;34679;51.436;-2.518;2023-11-21T01:38:02;3.08;;;0.50;;
48859;SDS011;34679;51.436;-2.518;2023-11-21T01:40:29;2.35;;;0.82;;
48859;SDS011;34679;51.436;-2.518;2023-11-21T01:42:55;5.75;;;1.00;;
48859;SDS011;34679;51.436;-2.518;2023-11-21T01:45:22;3.63;;;0.55;;
48859;SDS011;34679;51.436;-2.518;2023-11-21T01:47:50;2.42;;;0.60;;
48859;SDS011;34679;51.436;-2.518;2023-11-21T01:50:16;4.47;;;0.80;;
48859;SDS011;34679;51.436;-2.518;2023-11-21T01:52:46;4.28;;;0.80;;
48859;SDS011;34679;51.436;-2.518;2023-11-21T01:55:13;4.13;;;0.73;;
48859;SDS011;34679;51.436;-2.518;2023-11-21T01:57:45;2.53;;;0.80;;
48859;SDS011;34679;51.436;-2.518;2023-11-21T02:00:11;3.63;;;0.60;;
48859;SDS011;34679;51.436;-2.518;2023-11-21T02:02:47;2.35;;;0.70;;
48859;SDS011;34679;51.436;-2.518;2023-11-21T02:05:17;3.92;;;0.82;;
48859;SDS011;34679;51.436;-2.518;2023-11-21T02:07:43;4.15;;;0.70;;
48859;SDS011;34679;51.436;-2.518;2023-11-21T02:10:10;11.45;;;2.45;;
48859;SDS011;34679;51.436;-2.518;2023-11-21T02:12:39;3.03;;;0.60;;
48859;SDS011;34679;51.436;-2.518;2023-11-21T02:15:07;1.40;;;0.80;;
48859;SDS011;34679;51.436;-2.518;2023-11-21T02:17:40;6.13;;;1.08;;
48859;SDS011;34679;51.436;-2.518;2023-11-21T02:20:10;3.13;;;0.70;;
48859;SDS011;34679;51.436;-2.518;2023-11-21T02:22:40;4.55;;;0.70;;
48859;SDS011;34679;51.436;-2.518;2023-11-21T02:25:07;2.60;;;0.80;;
48859;SDS011;34679;51.436;-2.518;2023-11-21T02:27:33;1.33;;;0.77;;
48859;SDS011;34679;51.436;-2.518;2023-11-21T02:29:59;6.38;;;0.90;;
48859;SDS011;34679;51.436;-2.518;2023-11-21T02:32:26;2.70;;;0.70;;
48859;SDS011;34679;51.436;-2.518;2023-11-21T02:34:51;6.82;;;1.10;;
48859;SDS011;34679;51.436;-2.518;2023-11-21T02:37:18;3.83;;;1.10;;
48859;SDS011;34679;51.436;-2.518;2023-11-21T02:39:45;2.97;;;1.00;;
48859;SDS011;34679;51.436;-2.518;2023-11-21T02:42:10;3.78;;;1.30;;
48859;SDS011;34679;51.436;-2.518;2023-11-21T02:44:36;4.18;;;1.52;;
48859;SDS011;34679;51.436;-2.518;2023-11-21T02:47:02;5.13;;;1.83;;
48859;SDS011;34679;51.436;-2.518;2023-11-21T02:49:27;3.70;;;1.48;;
48859;SDS011;34679;51.436;-2.518;2023-11-21T02:51:54;4.82;;;1.75;;
48859;SDS011;34679;51.436;-2.518;2023-11-21T02:54:22;4.40;;;1.60;;
48859;SDS011;34679;51.436;-2.518;2023-11-21T02:56:48;3.88;;;1.50;;
48859;SDS011;34679;51.436;-2.518;2023-11-21T02:59:14;4.03;;;1.70;;
48859;SDS011;34679;51.436;-2.518;2023-11-21T03:01:40;3.35;;;1.40;;
48859;SDS011;34679;51.436;-2.518;2023-11-21T03:04:06;8.25;;;2.03;;
48859;SDS011;34679;51.436;-2.518;2023-11-21T03:06:32;4.90;;;1.80;;
48859;SDS011;34679;51.436;-2.518;2023-11-21T03:08:58;3.58;;;1.63;;
48859;SDS011;34679;51.436;-2.518;2023-11-21T03:11:24;3.42;;;1.90;;
48859;SDS011;34679;51.436;-2.518;2023-11-21T03:13:50;7.95;;;2.20;;
48859;SDS011;34679;51.436;-2.518;2023-11-21T03:16:16;2.85;;;2.35;;
48859;SDS011;34679;51.436;-2.518;2023-11-21T03:18:41;4.22;;;2.00;;
48859;SDS011;34679;51.436;-2.518;2023-11-21T03:21:08;5.03;;;2.45;;
48859;SDS011;34679;51.436;-2.518;2023-11-21T03:23:34;3.30;;;2.15;;
48859;SDS011;34679;51.436;-2.518;2023-11-21T03:26:01;7.15;;;2.97;;
48859;SDS011;34679;51.436;-2.518;2023-11-21T03:28:26;5.18;;;2.90;;
48859;SDS011;34679;51.436;-2.518;2023-11-21T03:30:53;6.07;;;3.08;;
48859;SDS011;34679;51.436;-2.518;2023-11-21T03:33:19;6.47;;;3.38;;
48859;SDS011;34679;51.436;-2.518;2023-11-21T03:35:45;3.88;;;3.20;;
48859;SDS011;34679;51.436;-2.518;2023-11-21T03:38:11;3.47;;;3.17;;
48859;SDS011;34679;51.436;-2.518;2023-11-21T03:40:37;5.57;;;3.30;;
48859;SDS011;34679;51.436;-2.518;2023-11-21T03:43:04;4.75;;;4.05;;
48859;SDS011;34679;51.436;-2.518;2023-11-21T03:45:31;4.95;;;4.45;;
48859;SDS011;34679;51.436;-2.518;2023-11-21T03:47:57;6.63;;;4.88;;
48859;SDS011;34679;51.436;-2.518;2023-11-21T03:50:22;6.25;;;4.53;;
48859;SDS011;34679;51.436;-2.518;2023-11-21T03:52:48;4.90;;;4.50;;
48859;SDS011;34679;51.436;-2.518;2023-11-21T03:55:14;5.53;;;5.03;;
48859;SDS011;34679;51.436;-2.518;2023-11-21T03:57:40;6.75;;;6.15;;
48859;SDS011;34679;51.436;-2.518;2023-11-21T04:00:06;7.10;;;6.20;;
48859;SDS011;34679;51.436;-2.518;2023-11-21T04:02:34;8.23;;;7.10;;
48859;SDS011;34679;51.436;-2.518;2023-11-21T04:05:00;8.93;;;7.38;;
48859;SDS011;34679;51.436;-2.518;2023-11-21T04:07:25;8.98;;;8.07;;
48859;SDS011;34679;51.436;-2.518;2023-11-21T04:09:52;8.55;;;7.85;;
48859;SDS011;34679;51.436;-2.518;2023-11-21T04:12:18;8.63;;;7.38;;
48859;SDS011;34679;51.436;-2.518;2023-11-21T04:14:44;8.40;;;7.70;;
48859;SDS011;34679;51.436;-2.518;2023-11-21T04:17:10;8.27;;;7.57;;
48859;SDS011;34679;51.436;-2.518;2023-11-21T04:19:35;12.25;;;8.02;;
48859;SDS011;34679;51.436;-2.518;2023-11-21T04:22:01;7.25;;;6.75;;
48859;SDS011;34679;51.436;-2.518;2023-11-21T04:24:27;7.18;;;6.55;;
48859;SDS011;34679;51.436;-2.518;2023-11-21T04:26:53;5.93;;;5.43;;
48859;SDS011;34679;51.436;-2.518;2023-11-21T04:29:19;5.43;;;5.03;;
48859;SDS011;34679;51.436;-2.518;2023-11-21T04:31:44;5.53;;;5.05;;
48859;SDS011;34679;51.436;-2.518;2023-11-21T04:34:11;5.63;;;4.97;;
48859;SDS011;34679;51.436;-2.518;2023-11-21T04:36:37;4.38;;;3.97;;
48859;SDS011;34679;51.436;-2.518;2023-11-21T04:39:04;2.53;;;2.03;;
48859;SDS011;34679;51.436;-2.518;2023-11-21T04:41:31;2.50;;;1.95;;
48859;SDS011;34679;51.436;-2.518;2023-11-21T04:43:57;1.38;;;1.27;;
48859;SDS011;34679;51.436;-2.518;2023-11-21T04:46:23;1.35;;;1.25;;
48859;SDS011;34679;51.436;-2.518;2023-11-21T04:48:49;2.42;;;0.90;;
48859;SDS011;34679;51.436;-2.518;2023-11-21T04:51:15;1.90;;;1.00;;
48859;SDS011;34679;51.436;-2.518;2023-11-21T04:53:40;0.75;;;0.75;;
48859;SDS011;34679;51.436;-2.518;2023-11-21T04:56:06;0.73;;;0.70;;
48859;SDS011;34679;51.436;-2.518;2023-11-21T04:58:32;1.85;;;0.80;;
48859;SDS011;34679;51.436;-2.518;2023-11-21T05:00:58;1.38;;;0.88;;
48859;SDS011;34679;51.436;-2.518;2023-11-21T05:03:24;1.52;;;0.63;;
48859;SDS011;34679;51.436;-2.518;2023-11-21T05:05:49;0.85;;;0.63;;
48859;SDS011;34679;51.436;-2.518;2023-11-21T05:08:15;1.02;;;0.63;;
48859;SDS011;34679;51.436;-2.518;2023-11-21T05:10:41;0.80;;;0.80;;
48859;SDS011;34679;51.436;-2.518;2023-11-21T05:13:06;0.65;;;0.60;;
48859;SDS011;34679;51.436;-2.518;2023-11-21T05:15:35;0.88;;;0.88;;
48859;SDS011;34679;51.436;-2.518;2023-11-21T05:18:01;2.60;;;0.80;;
48859;SDS011;34679;51.436;-2.518;2023-11-21T05:20:26;2.58;;;0.90;;
48859;SDS011;34679;51.436;-2.518;2023-11-21T05:22:53;0.95;;;0.90;;
48859;SDS011;34679;51.436;-2.518;2023-11-21T05:25:18;0.82;;;0.82;;
48859;SDS011;34679;51.436;-2.518;2023-11-21T05:27:45;0.80;;;0.80;;
48859;SDS011;34679;51.436;-2.518;2023-11-21T05:30:11;0.70;;;0.70;;
48859;SDS011;34679;51.436;-2.518;2023-11-21T05:32:38;0.95;;;0.80;;
48859;SDS011;34679;51.436;-2.518;2023-11-21T05:35:04;1.73;;;0.75;;
48859;SDS011;34679;51.436;-2.518;2023-11-21T05:37:36;2.17;;;1.30;;
48859;SDS011;34679;51.436;-2.518;2023-11-21T05:40:06;2.83;;;0.75;;
48859;SDS011;34679;51.436;-2.518;2023-11-21T05:42:33;0.60;;;0.60;;
48859;SDS011;34679;51.436;-2.518;2023-11-21T05:44:59;1.48;;;0.55;;
48859;SDS011;34679;51.436;-2.518;2023-11-21T05:47:35;1.70;;;0.77;;
48859;SDS011;34679;51.436;-2.518;2023-11-21T05:50:02;0.55;;;0.55;;
48859;SDS011;34679;51.436;-2.518;2023-11-21T05:52:30;1.50;;;0.50;;
48859;SDS011;34679;51.436;-2.518;2023-11-21T05:54:57;0.80;;;0.50;;
48859;SDS011;34679;51.436;-2.518;2023-11-21T05:57:23;1.20;;;0.80;;
48859;SDS011;34679;51.436;-2.518;2023-11-21T05:59:49;2.00;;;0.57;;
48859;SDS011;34679;51.436;-2.518;2023-11-21T06:02:14;1.10;;;0.60;;
48859;SDS011;34679;51.436;-2.518;2023-11-21T06:04:40;0.73;;;0.40;;
48859;SDS011;34679;51.436;-2.518;2023-11-21T06:07:06;0.65;;;0.43;;
48859;SDS011;34679;51.436;-2.518;2023-11-21T06:09:32;1.65;;;0.50;;
48859;SDS011;34679;51.436;-2.518;2023-11-21T06:11:57;3.15;;;1.00;;
48859;SDS011;34679;51.436;-2.518;2023-11-21T06:14:23;0.88;;;0.60;;
48859;SDS011;34679;51.436;-2.518;2023-11-21T06:16:49;1.92;;;0.30;;
48859;SDS011;34679;51.436;-2.518;2023-11-21T06:19:16;2.35;;;0.60;;
48859;SDS011;34679;51.436;-2.518;2023-11-21T06:21:45;2.20;;;0.50;;
48859;SDS011;34679;51.436;-2.518;2023-11-21T06:24:11;2.55;;;0.60;;
48859;SDS011;34679;51.436;-2.518;2023-11-21T06:26:37;0.68;;;0.43;;
48859;SDS011;34679;51.436;-2.518;2023-11-21T06:29:03;1.17;;;0.50;;
48859;SDS011;34679;51.436;-2.518;2023-11-21T06:31:30;3.40;;;0.57;;
48859;SDS011;34679;51.436;-2.518;2023-11-21T06:33:57;1.05;;;0.50;;
48859;SDS011;34679;51.436;-2.518;2023-11-21T06:36:24;1.00;;;0.43;;
48859;SDS011;34679;51.436;-2.518;2023-11-21T06:38:51;1.75;;;0.40;;
48859;SDS011;34679;51.436;-2.518;2023-11-21T06:41:17;1.60;;;0.47;;
48859;SDS011;34679;51.436;-2.518;2023-11-21T06:43:43;1.10;;;0.45;;
48859;SDS011;34679;51.436;-2.518;2023-11-21T06:46:11;1.38;;;0.40;;
48859;SDS011;34679;51.436;-2.518;2023-11-21T06:48:39;1.58;;;0.40;;
48859;SDS011;34679;51.436;-2.518;2023-11-21T06:51:07;0.40;;;0.32;;
48859;SDS011;34679;51.436;-2.518;2023-11-21T06:53:33;1.40;;;0.50;;
48859;SDS011;34679;51.436;-2.518;2023-11-21T06:55:59;1.60;;;0.50;;
48859;SDS011;34679;51.436;-2.518;2023-11-21T06:58:24;0.77;;;0.38;;
48859;SDS011;34679;51.436;-2.518;2023-11-21T07:00:50;1.08;;;0.40;;
48859;SDS011;34679;51.436;-2.518;2023-11-21T07:03:17;1.60;;;0.40;;
48859;SDS011;34679;51.436;-2.518;2023-11-21T07:05:44;1.48;;;0.55;;
48859;SDS011;34679;51.436;-2.518;2023-11-21T07:08:10;0.73;;;0.30;;
48859;SDS011;34679;51.436;-2.518;2023-11-21T07:10:35;1.00;;;0.40;;
48859;SDS011;34679;51.436;-2.518;2023-11-21T07:13:02;1.48;;;0.47;;
48859;SDS011;34679;51.436;-2.518;2023-11-21T07:15:27;3.83;;;0.40;;
48859;SDS011;34679;51.436;-2.518;2023-11-21T07:17:53;2.03;;;0.45;;
48859;SDS011;34679;51.436;-2.518;2023-11-21T07:20:19;4.00;;;0.50;;
48859;SDS011;34679;51.436;-2.518;2023-11-21T07:22:46;0.95;;;0.30;;
48859;SDS011;34679;51.436;-2.518;2023-11-21T07:25:12;2.05;;;0.38;;
48859;SDS011;34679;51.436;-2.518;2023-11-21T07:27:37;1.55;;;0.40;;
48859;SDS011;34679;51.436;-2.518;2023-11-21T07:30:03;1.75;;;0.30;;
48859;SDS011;34679;51.436;-2.518;2023-11-21T07:32:31;1.55;;;0.38;;
48859;SDS011;34679;51.436;-2.518;2023-11-21T07:34:57;0.88;;;0.50;;
48859;SDS011;34679;51.436;-2.518;2023-11-21T07:37:24;1.38;;;0.38;;
48859;SDS011;34679;51.436;-2.518;2023-11-21T07:39:51;2.05;;;0.30;;
48859;SDS011;34679;51.436;-2.518;2023-11-21T07:42:21;1.05;;;0.40;;
48859;SDS011;34679;51.436;-2.518;2023-11-21T07:44:49;0.90;;;0.30;;
48859;SDS011;34679;51.436;-2.518;2023-11-21T07:47:15;1.15;;;0.40;;
48859;SDS011;34679;51.436;-2.518;2023-11-21T07:49:41;1.42;;;0.73;;
48859;SDS011;34679;51.436;-2.518;2023-11-21T07:52:08;1.00;;;0.40;;
48859;SDS011;34679;51.436;-2.518;2023-11-21T07:54:34;0.25;;;0.25;;
48859;SDS011;34679;51.436;-2.518;2023-11-21T07:57:00;0.57;;;0.40;;
48859;SDS011;34679;51.436;-2.518;2023-11-21T07:59:26;3.00;;;0.68;;
48859;SDS011;34679;51.436;-2.518;2023-11-21T08:01:52;1.98;;;0.90;;
48859;SDS011;34679;51.436;-2.518;2023-11-21T08:04:18;3.05;;;0.25;;
48859;SDS011;34679;51.436;-2.518;2023-11-21T08:06:43;2.40;;;0.30;;
48859;SDS011;34679;51.436;-2.518;2023-11-21T08:09:09;1.67;;;0.30;;
48859;SDS011;34679;51.436;-2.518;2023-11-21T08:11:35;3.45;;;0.30;;
48859;SDS011;34679;51.436;-2.518;2023-11-21T08:14:00;1.15;;;0.55;;
48859;SDS011;34679;51.436;-2.518;2023-11-21T08:16:26;1.88;;;0.40;;
48859;SDS011;34679;51.436;-2.518;2023-11-21T08:18:52;1.23;;;0.30;;
48859;SDS011;34679;51.436;-2.518;2023-11-21T08:21:19;1.55;;;0.30;;
48859;SDS011;34679;51.436;-2.518;2023-11-21T08:23:45;0.95;;;0.40;;
48859;SDS011;34679;51.436;-2.518;2023-11-21T08:26:10;0.28;;;0.20;;
48859;SDS011;34679;51.436;-2.518;2023-11-21T08:28:36;5.45;;;0.50;;
48859;SDS011;34679;51.436;-2.518;2023-11-21T08:31:02;0.35;;;0.30;;
48859;SDS011;34679;51.436;-2.518;2023-11-21T08:33:27;1.42;;;0.32;;
48859;SDS011;34679;51.436;-2.518;2023-11-21T08:35:53;2.85;;;0.30;;
48859;SDS011;34679;51.436;-2.518;2023-11-21T08:38:19;1.42;;;0.30;;
48859;SDS011;34679;51.436;-2.518;2023-11-21T08:40:44;2.05;;;0.30;;
48859;SDS011;34679;51.436;-2.518;2023-11-21T08:43:10;2.13;;;0.20;;
48859;SDS011;34679;51.436;-2.518;2023-11-21T08:45:37;1.48;;;0.30;;
48859;SDS011;34679;51.436;-2.518;2023-11-21T08:48:03;0.47;;;0.20;;
48859;SDS011;34679;51.436;-2.518;2023-11-21T08:50:29;5.13;;;0.60;;
48859;SDS011;34679;51.436;-2.518;2023-11-21T08:52:55;1.25;;;0.35;;
48859;SDS011;34679;51.436;-2.518;2023-11-21T08:55:20;0.98;;;0.40;;
48859;SDS011;34679;51.436;-2.518;2023-11-21T08:57:47;1.17;;;0.30;;
48859;SDS011;34679;51.436;-2.518;2023-11-21T09:00:13;1.85;;;0.30;;
48859;SDS011;34679;51.436;-2.518;2023-11-21T09:02:41;4.95;;;0.57;;
48859;SDS011;34679;51.436;-2.518;2023-11-21T09:05:07;1.08;;;0.70;;
48859;SDS011;34679;51.436;-2.518;2023-11-21T09:07:34;1.38;;;0.73;;
48859;SDS011;34679;51.436;-2.518;2023-11-21T09:10:00;1.40;;;0.70;;
48859;SDS011;34679;51.436;-2.518;2023-11-21T09:12:27;2.42;;;0.70;;
48859;SDS011;34679;51.436;-2.518;2023-11-21T09:14:52;8.50;;;0.65;;
48859;SDS011;34679;51.436;-2.518;2023-11-21T09:17:18;2.47;;;0.82;;
48859;SDS011;34679;51.436;-2.518;2023-11-21T09:19:44;1.05;;;0.47;;
48859;SDS011;34679;51.436;-2.518;2023-11-21T09:22:14;2.15;;;0.40;;
48859;SDS011;34679;51.436;-2.518;2023-11-21T09:24:41;3.00;;;0.47;;
48859;SDS011;34679;51.436;-2.518;2023-11-21T09:27:07;3.92;;;0.40;;
48859;SDS011;34679;51.436;-2.518;2023-11-21T09:29:34;1.52;;;0.40;;
48859;SDS011;34679;51.436;-2.518;2023-11-21T09:32:00;0.93;;;0.40;;
48859;SDS011;34679;51.436;-2.518;2023-11-21T09:34:26;5.15;;;0.80;;
48859;SDS011;34679;51.436;-2.518;2023-11-21T09:36:52;1.27;;;0.50;;
48859;SDS011;34679;51.436;-2.518;2023-11-21T09:39:19;1.20;;;0.60;;
48859;SDS011;34679;51.436;-2.518;2023-11-21T09:41:51;6.55;;;0.82;;
48859;SDS011;34679;51.436;-2.518;2023-11-21T09:44:30;4.03;;;0.50;;
48859;SDS011;34679;51.436;-2.518;2023-11-21T09:47:00;0.82;;;0.30;;
48859;SDS011;34679;51.436;-2.518;2023-11-21T09:49:28;3.13;;;0.82;;
48859;SDS011;34679;51.436;-2.518;2023-11-21T09:51:59;1.73;;;0.57;;
48859;SDS011;34679;51.436;-2.518;2023-11-21T09:54:28;2.30;;;0.95;;
48859;SDS011;34679;51.436;-2.518;2023-11-21T09:56:54;3.40;;;0.68;;
48859;SDS011;34679;51.436;-2.518;2023-11-21T09:59:20;0.73;;;0.50;;
48859;SDS011;34679;51.436;-2.518;2023-11-21T10:01:47;8.48;;;2.05;;
48859;SDS011;34679;51.436;-2.518;2023-11-21T10:04:13;5.07;;;0.70;;
48859;SDS011;34679;51.436;-2.518;2023-11-21T10:06:39;6.03;;;0.90;;
48859;SDS011;34679;51.436;-2.518;2023-11-21T10:09:10;4.60;;;1.70;;
48859;SDS011;34679;51.436;-2.518;2023-11-21T10:11:42;4.07;;;0.70;;
48859;SDS011;34679;51.436;-2.518;2023-11-21T10:14:11;1.42;;;0.60;;
48859;SDS011;34679;51.436;-2.518;2023-11-21T10:16:39;5.25;;;0.95;;
48859;SDS011;34679;51.436;-2.518;2023-11-21T10:19:08;2.35;;;1.15;;
48859;SDS011;34679;51.436;-2.518;2023-11-21T10:21:35;5.00;;;0.98;;
48859;SDS011;34679;51.436;-2.518;2023-11-21T10:24:03;3.97;;;0.73;;
48859;SDS011;34679;51.436;-2.518;2023-11-21T10:26:29;2.95;;;0.73;;
48859;SDS011;34679;51.436;-2.518;2023-11-21T10:28:57;1.20;;;0.60;;
48859;SDS011;34679;51.436;-2.518;2023-11-21T10:31:27;1.73;;;0.68;;
48859;SDS011;34679;51.436;-2.518;2023-11-21T10:33:56;4.18;;;0.95;;
48859;SDS011;34679;51.436;-2.518;2023-11-21T10:36:39;1.33;;;0.70;;
48859;SDS011;34679;51.436;-2.518;2023-11-21T10:39:04;4.05;;;0.80;;
48859;SDS011;34679;51.436;-2.518;2023-11-21T10:41:30;5.57;;;1.08;;
48859;SDS011;34679;51.436;-2.518;2023-11-21T10:43:56;1.27;;;0.50;;
48859;SDS011;34679;51.436;-2.518;2023-11-21T10:46:22;3.35;;;0.90;;
48859;SDS011;34679;51.436;-2.518;2023-11-21T10:48:54;3.70;;;0.70;;
48859;SDS011;34679;51.436;-2.518;2023-11-21T10:51:21;1.52;;;0.70;;
48859;SDS011;34679;51.436;-2.518;2023-11-21T10:53:47;1.85;;;0.80;;
48859;SDS011;34679;51.436;-2.518;2023-11-21T10:56:15;1.90;;;0.70;;
48859;SDS011;34679;51.436;-2.518;2023-11-21T10:58:45;2.17;;;1.00;;
48859;SDS011;34679;51.436;-2.518;2023-11-21T11:01:11;1.13;;;0.80;;
48859;SDS011;34679;51.436;-2.518;2023-11-21T11:03:39;2.92;;;0.80;;
48859;SDS011;34679;51.436;-2.518;2023-11-21T11:06:06;3.40;;;0.70;;
48859;SDS011;34679;51.436;-2.518;2023-11-21T11:08:36;0.98;;;0.70;;
48859;SDS011;34679;51.436;-2.518;2023-11-21T11:11:04;11.38;;;1.15;;
48859;SDS011;34679;51.436;-2.518;2023-11-21T11:13:33;2.50;;;0.70;;
48859;SDS011;34679;51.436;-2.518;2023-11-21T11:15:59;3.40;;;1.05;;
48859;SDS011;34679;51.436;-2.518;2023-11-21T11:18:32;1.73;;;0.80;;
48859;SDS011;34679;51.436;-2.518;2023-11-21T11:21:01;1.88;;;1.02;;
48859;SDS011;34679;51.436;-2.518;2023-11-21T11:23:49;4.07;;;1.08;;
48859;SDS011;34679;51.436;-2.518;2023-11-21T11:26:39;4.20;;;0.80;;
48859;SDS011;34679;51.436;-2.518;2023-11-21T11:29:17;1.80;;;0.70;;
48859;SDS011;34679;51.436;-2.518;2023-11-21T11:34:41;4.35;;;1.00;;
48859;SDS011;34679;51.436;-2.518;2023-11-21T11:37:11;2.27;;;0.90;;
48859;SDS011;34679;51.436;-2.518;2023-11-21T11:39:38;5.07;;;1.08;;
48859;SDS011;34679;51.436;-2.518;2023-11-21T11:42:13;4.63;;;0.90;;
48859;SDS011;34679;51.436;-2.518;2023-11-21T11:47:15;4.20;;;0.75;;
48859;SDS011;34679;51.436;-2.518;2023-11-21T11:55:01;7.03;;;1.10;;
48859;SDS011;34679;51.436;-2.518;2023-11-21T11:57:32;2.05;;;1.30;;
48859;SDS011;34679;51.436;-2.518;2023-11-21T12:00:07;1.48;;;0.98;;
48859;SDS011;34679;51.436;-2.518;2023-11-21T12:02:36;4.25;;;1.23;;
48859;SDS011;34679;51.436;-2.518;2023-11-21T12:05:09;3.03;;;1.25;;
48859;SDS011;34679;51.436;-2.518;2023-11-21T12:07:45;3.55;;;1.25;;
48859;SDS011;34679;51.436;-2.518;2023-11-21T12:10:18;3.67;;;1.17;;
48859;SDS011;34679;51.436;-2.518;2023-11-21T12:12:46;2.13;;;0.88;;
48859;SDS011;34679;51.436;-2.518;2023-11-21T12:15:23;1.52;;;0.80;;
48859;SDS011;34679;51.436;-2.518;2023-11-21T12:17:49;4.60;;;1.15;;
48859;SDS011;34679;51.436;-2.518;2023-11-21T12:20:18;2.60;;;0.90;;
48859;SDS011;34679;51.436;-2.518;2023-11-21T12:22:48;4.32;;;1.02;;
48859;SDS011;34679;51.436;-2.518;2023-11-21T12:25:21;1.95;;;1.00;;
48859;SDS011;34679;51.436;-2.518;2023-11-21T12:27:54;4.05;;;1.90;;
48859;SDS011;34679;51.436;-2.518;2023-11-21T12:30:21;1.73;;;0.70;;
48859;SDS011;34679;51.436;-2.518;2023-11-21T12:32:49;4.80;;;0.93;;
48859;SDS011;34679;51.436;-2.518;2023-11-21T12:35:18;5.90;;;1.38;;
48859;SDS011;34679;51.436;-2.518;2023-11-21T12:37:49;3.97;;;1.33;;
48859;SDS011;34679;51.436;-2.518;2023-11-21T12:40:17;2.60;;;0.93;;
48859;SDS011;34679;51.436;-2.518;2023-11-21T12:42:46;2.45;;;1.00;;
48859;SDS011;34679;51.436;-2.518;2023-11-21T12:47:46;5.55;;;0.95;;
48859;SDS011;34679;51.436;-2.518;2023-11-21T12:50:19;1.33;;;0.88;;
48859;SDS011;34679;51.436;-2.518;2023-11-21T12:52:50;4.93;;;1.15;;
48859;SDS011;34679;51.436;-2.518;2023-11-21T12:55:18;3.42;;;1.23;;
48859;SDS011;34679;51.436;-2.518;2023-11-21T12:57:49;3.55;;;1.20;;
48859;SDS011;34679;51.436;-2.518;2023-11-21T13:00:17;6.32;;;1.55;;
48859;SDS011;34679;51.436;-2.518;2023-11-21T13:02:54;5.88;;;1.40;;
48859;SDS011;34679;51.436;-2.518;2023-11-21T13:05:35;4.85;;;1.23;;
48859;SDS011;34679;51.436;-2.518;2023-11-21T13:08:05;1.40;;;1.10;;
48859;SDS011;34679;51.436;-2.518;2023-11-21T13:10:37;2.13;;;1.10;;
48859;SDS011;34679;51.436;-2.518;2023-11-21T13:13:11;6.53;;;2.00;;
48859;SDS011;34679;51.436;-2.518;2023-11-21T13:18:17;4.78;;;1.00;;
48859;SDS011;34679;51.436;-2.518;2023-11-21T13:20:43;2.10;;;1.33;;
48859;SDS011;34679;51.436;-2.518;2023-11-21T13:23:09;2.97;;;1.42;;
48859;SDS011;34679;51.436;-2.518;2023-11-21T13:25:40;3.72;;;1.75;;
48859;SDS011;34679;51.436;-2.518;2023-11-21T13:28:07;2.90;;;1.20;;
48859;SDS011;34679;51.436;-2.518;2023-11-21T13:30:34;3.65;;;0.95;;
48859;SDS011;34679;51.436;-2.518;2023-11-21T13:33:03;1.73;;;0.90;;
48859;SDS011;34679;51.436;-2.518;2023-11-21T13:35:35;5.05;;;1.23;;
48859;SDS011;34679;51.436;-2.518;2023-11-21T13:38:12;2.45;;;1.10;;
48859;SDS011;34679;51.436;-2.518;2023-11-21T13:40:56;2.63;;;1.30;;
48859;SDS011;34679;51.436;-2.518;2023-11-21T13:43:24;5.03;;;1.30;;
48859;SDS011;34679;51.436;-2.518;2023-11-21T13:45:51;2.50;;;1.05;;
48859;SDS011;34679;51.436;-2.518;2023-11-21T13:48:27;1.42;;;0.90;;
48859;SDS011;34679;51.436;-2.518;2023-11-21T13:50:59;2.20;;;1.42;;
48859;SDS011;34679;51.436;-2.518;2023-11-21T13:53:42;1.73;;;1.10;;
48859;SDS011;34679;51.436;-2.518;2023-11-21T13:56:09;2.97;;;1.08;;
48859;SDS011;34679;51.436;-2.518;2023-11-21T13:58:36;6.07;;;0.90;;
48859;SDS011;34679;51.436;-2.518;2023-11-21T14:01:15;3.17;;;0.98;;
48859;SDS011;34679;51.436;-2.518;2023-11-21T14:04:02;1.35;;;1.10;;
48859;SDS011;34679;51.436;-2.518;2023-11-21T14:06:40;2.33;;;0.85;;
48859;SDS011;34679;51.436;-2.518;2023-11-21T14:09:23;2.25;;;1.20;;
48859;SDS011;34679;51.436;-2.518;2023-11-21T14:11:58;4.18;;;1.17;;
48859;SDS011;34679;51.436;-2.518;2023-11-21T14:14:26;3.08;;;1.02;;
48859;SDS011;34679;51.436;-2.518;2023-11-21T14:16:55;3.25;;;1.63;;
48859;SDS011;34679;51.436;-2.518;2023-11-21T14:19:23;3.75;;;1.10;;
48859;SDS011;34679;51.436;-2.518;2023-11-21T14:21:53;4.05;;;0.95;;
48859;SDS011;34679;51.436;-2.518;2023-11-21T14:24:18;3.38;;;1.77;;
48859;SDS011;34679;51.436;-2.518;2023-11-21T14:26:45;2.80;;;1.25;;
48859;SDS011;34679;51.436;-2.518;2023-11-21T14:29:12;3.95;;;1.33;;
48859;SDS011;34679;51.436;-2.518;2023-11-21T14:31:41;3.80;;;1.30;;
48859;SDS011;34679;51.436;-2.518;2023-11-21T14:34:07;4.32;;;1.13;;
48859;SDS011;34679;51.436;-2.518;2023-11-21T14:36:34;3.10;;;1.60;;
48859;SDS011;34679;51.436;-2.518;2023-11-21T14:39:01;4.97;;;1.85;;
48859;SDS011;34679;51.436;-2.518;2023-11-21T14:41:32;7.20;;;1.55;;
48859;SDS011;34679;51.436;-2.518;2023-11-21T14:44:00;7.38;;;2.17;;
48859;SDS011;34679;51.436;-2.518;2023-11-21T14:46:28;1.88;;;1.13;;
48859;SDS011;34679;51.436;-2.518;2023-11-21T14:48:54;3.33;;;1.33;;
48859;SDS011;34679;51.436;-2.518;2023-11-21T14:51:25;3.83;;;1.27;;